sensor_id;sensor_type;location;lat;lon;timestamp;temperature;humidity
60039;DHT22;45916;52.734;6.544;2022-08-19T00:01:12;14.90;99.90
60039;DHT22;45916;52.734;6.544;2022-08-19T00:03:38;14.80;99.90
60039;DHT22;45916;52.734;6.544;2022-08-19T00:06:04;14.90;99.90
60039;DHT22;45916;52.734;6.544;2022-08-19T00:08:30;14.90;99.90
60039;DHT22;45916;52.734;6.544;2022-08-19T00:10:56;14.90;99.90
60039;DHT22;45916;52.734;6.544;2022-08-19T00:13:22;14.90;99.90
60039;DHT22;45916;52.734;6.544;2022-08-19T00:15:47;14.80;99.90
60039;DHT22;45916;52.734;6.544;2022-08-19T00:18:13;14.80;99.90
60039;DHT22;45916;52.734;6.544;2022-08-19T00:20:39;14.70;99.90
60039;DHT22;45916;52.734;6.544;2022-08-19T00:23:06;14.80;99.90
60039;DHT22;45916;52.734;6.544;2022-08-19T00:25:31;14.80;99.90
60039;DHT22;45916;52.734;6.544;2022-08-19T00:27:57;14.80;99.90
60039;DHT22;45916;52.734;6.544;2022-08-19T00:30:24;14.80;99.90
60039;DHT22;45916;52.734;6.544;2022-08-19T00:32:51;14.80;99.90
60039;DHT22;45916;52.734;6.544;2022-08-19T00:35:16;14.70;99.90
60039;DHT22;45916;52.734;6.544;2022-08-19T00:37:43;14.60;99.90
60039;DHT22;45916;52.734;6.544;2022-08-19T00:40:10;14.70;99.90
60039;DHT22;45916;52.734;6.544;2022-08-19T00:42:37;14.70;99.90
60039;DHT22;45916;52.734;6.544;2022-08-19T00:45:05;14.60;99.90
60039;DHT22;45916;52.734;6.544;2022-08-19T00:47:37;14.60;99.90
60039;DHT22;45916;52.734;6.544;2022-08-19T00:50:02;14.60;99.90
60039;DHT22;45916;52.734;6.544;2022-08-19T00:52:32;14.60;99.90
60039;DHT22;45916;52.734;6.544;2022-08-19T00:54:58;14.70;99.90
60039;DHT22;45916;52.734;6.544;2022-08-19T00:57:30;14.60;99.90
60039;DHT22;45916;52.734;6.544;2022-08-19T00:59:57;14.60;99.90
60039;DHT22;45916;52.734;6.544;2022-08-19T01:02:24;14.70;99.90
60039;DHT22;45916;52.734;6.544;2022-08-19T01:04:50;14.60;99.90
60039;DHT22;45916;52.734;6.544;2022-08-19T01:07:16;14.60;99.90
60039;DHT22;45916;52.734;6.544;2022-08-19T01:09:42;14.60;99.90
60039;DHT22;45916;52.734;6.544;2022-08-19T01:12:08;14.60;99.90
60039;DHT22;45916;52.734;6.544;2022-08-19T01:14:34;14.50;99.90
60039;DHT22;45916;52.734;6.544;2022-08-19T01:17:00;14.50;99.90
60039;DHT22;45916;52.734;6.544;2022-08-19T01:19:28;14.50;99.90
60039;DHT22;45916;52.734;6.544;2022-08-19T01:22:19;14.50;99.90
60039;DHT22;45916;52.734;6.544;2022-08-19T01:24:43;14.50;99.90
60039;DHT22;45916;52.734;6.544;2022-08-19T01:27:08;14.40;99.90
60039;DHT22;45916;52.734;6.544;2022-08-19T01:29:36;14.40;99.90
60039;DHT22;45916;52.734;6.544;2022-08-19T01:32:02;14.50;99.90
60039;DHT22;45916;52.734;6.544;2022-08-19T01:34:28;14.50;99.90
60039;DHT22;45916;52.734;6.544;2022-08-19T01:36:53;14.40;99.90
60039;DHT22;45916;52.734;6.544;2022-08-19T01:39:20;14.40;99.90
60039;DHT22;45916;52.734;6.544;2022-08-19T01:41:47;14.40;99.90
60039;DHT22;45916;52.734;6.544;2022-08-19T01:44:13;14.30;99.90
60039;DHT22;45916;52.734;6.544;2022-08-19T01:46:38;14.30;99.90
60039;DHT22;45916;52.734;6.544;2022-08-19T01:49:04;14.30;99.90
60039;DHT22;45916;52.734;6.544;2022-08-19T01:51:30;14.30;99.90
60039;DHT22;45916;52.734;6.544;2022-08-19T01:53:57;14.20;99.90
60039;DHT22;45916;52.734;6.544;2022-08-19T01:56:23;14.20;99.90
60039;DHT22;45916;52.734;6.544;2022-08-19T01:58:50;14.20;99.90
60039;DHT22;45916;52.734;6.544;2022-08-19T02:01:18;14.20;99.90
60039;DHT22;45916;52.734;6.544;2022-08-19T02:03:44;14.20;99.90
60039;DHT22;45916;52.734;6.544;2022-08-19T02:06:13;14.20;99.90
60039;DHT22;45916;52.734;6.544;2022-08-19T02:08:39;14.20;99.90
60039;DHT22;45916;52.734;6.544;2022-08-19T02:11:06;14.10;99.90
60039;DHT22;45916;52.734;6.544;2022-08-19T02:13:33;14.00;99.90
60039;DHT22;45916;52.734;6.544;2022-08-19T02:16:01;14.00;99.90
60039;DHT22;45916;52.734;6.544;2022-08-19T02:18:30;13.90;99.90
60039;DHT22;45916;52.734;6.544;2022-08-19T02:20:55;13.90;99.90
60039;DHT22;45916;52.734;6.544;2022-08-19T02:23:21;13.90;99.90
60039;DHT22;45916;52.734;6.544;2022-08-19T02:25:47;13.90;99.90
60039;DHT22;45916;52.734;6.544;2022-08-19T02:28:13;13.90;99.90
60039;DHT22;45916;52.734;6.544;2022-08-19T02:30:40;13.90;99.90
60039;DHT22;45916;52.734;6.544;2022-08-19T02:33:06;13.90;99.90
60039;DHT22;45916;52.734;6.544;2022-08-19T02:35:31;13.90;99.90
60039;DHT22;45916;52.734;6.544;2022-08-19T02:37:57;13.80;99.90
60039;DHT22;45916;52.734;6.544;2022-08-19T02:40:47;13.90;99.90
60039;DHT22;45916;52.734;6.544;2022-08-19T02:43:14;13.90;99.90
60039;DHT22;45916;52.734;6.544;2022-08-19T02:45:40;13.90;99.90
60039;DHT22;45916;52.734;6.544;2022-08-19T02:48:06;13.70;99.90
60039;DHT22;45916;52.734;6.544;2022-08-19T02:50:32;13.80;99.90
60039;DHT22;45916;52.734;6.544;2022-08-19T02:52:58;13.80;99.90
60039;DHT22;45916;52.734;6.544;2022-08-19T02:55:24;13.70;99.90
60039;DHT22;45916;52.734;6.544;2022-08-19T02:57:49;13.70;99.90
60039;DHT22;45916;52.734;6.544;2022-08-19T03:00:15;13.70;99.90
60039;DHT22;45916;52.734;6.544;2022-08-19T03:02:41;13.70;99.90
60039;DHT22;45916;52.734;6.544;2022-08-19T03:05:07;13.70;99.90
60039;DHT22;45916;52.734;6.544;2022-08-19T03:07:33;13.70;99.90
60039;DHT22;45916;52.734;6.544;2022-08-19T03:09:59;13.80;99.90
60039;DHT22;45916;52.734;6.544;2022-08-19T03:12:25;13.70;99.90
60039;DHT22;45916;52.734;6.544;2022-08-19T03:14:50;13.70;99.90
60039;DHT22;45916;52.734;6.544;2022-08-19T03:17:17;13.60;99.90
60039;DHT22;45916;52.734;6.544;2022-08-19T03:19:42;13.50;99.90
60039;DHT22;45916;52.734;6.544;2022-08-19T03:22:08;13.50;99.90
60039;DHT22;45916;52.734;6.544;2022-08-19T03:24:34;13.50;99.90
60039;DHT22;45916;52.734;6.544;2022-08-19T03:27:00;13.50;99.90
60039;DHT22;45916;52.734;6.544;2022-08-19T03:29:26;13.50;99.90
60039;DHT22;45916;52.734;6.544;2022-08-19T03:31:52;13.60;99.90
60039;DHT22;45916;52.734;6.544;2022-08-19T03:34:23;13.60;99.90
60039;DHT22;45916;52.734;6.544;2022-08-19T03:36:51;13.60;99.90
60039;DHT22;45916;52.734;6.544;2022-08-19T03:39:17;13.60;99.90
60039;DHT22;45916;52.734;6.544;2022-08-19T03:41:44;13.50;99.90
60039;DHT22;45916;52.734;6.544;2022-08-19T03:44:10;13.50;99.90
60039;DHT22;45916;52.734;6.544;2022-08-19T03:46:35;13.50;99.90
60039;DHT22;45916;52.734;6.544;2022-08-19T03:49:02;13.40;99.90
60039;DHT22;45916;52.734;6.544;2022-08-19T03:51:36;13.30;99.90
60039;DHT22;45916;52.734;6.544;2022-08-19T03:54:03;13.20;99.90
60039;DHT22;45916;52.734;6.544;2022-08-19T03:56:29;13.20;99.90
60039;DHT22;45916;52.734;6.544;2022-08-19T03:58:58;13.20;99.90
60039;DHT22;45916;52.734;6.544;2022-08-19T04:01:25;13.20;99.90
60039;DHT22;45916;52.734;6.544;2022-08-19T04:03:52;13.20;99.90
60039;DHT22;45916;52.734;6.544;2022-08-19T04:06:23;13.30;99.90
60039;DHT22;45916;52.734;6.544;2022-08-19T04:08:49;13.30;99.90
60039;DHT22;45916;52.734;6.544;2022-08-19T04:11:17;13.40;99.90
60039;DHT22;45916;52.734;6.544;2022-08-19T04:13:43;13.30;99.90
60039;DHT22;45916;52.734;6.544;2022-08-19T04:16:10;13.30;99.90
60039;DHT22;45916;52.734;6.544;2022-08-19T04:18:36;13.30;99.90
60039;DHT22;45916;52.734;6.544;2022-08-19T04:21:02;13.30;99.90
60039;DHT22;45916;52.734;6.544;2022-08-19T04:23:28;13.30;99.90
60039;DHT22;45916;52.734;6.544;2022-08-19T04:25:54;13.30;99.90
60039;DHT22;45916;52.734;6.544;2022-08-19T04:28:20;13.30;99.90
60039;DHT22;45916;52.734;6.544;2022-08-19T04:30:47;13.30;99.90
60039;DHT22;45916;52.734;6.544;2022-08-19T04:33:13;13.30;99.90
60039;DHT22;45916;52.734;6.544;2022-08-19T04:35:41;13.30;99.90
60039;DHT22;45916;52.734;6.544;2022-08-19T04:38:08;13.30;99.90
60039;DHT22;45916;52.734;6.544;2022-08-19T04:40:34;13.30;99.90
60039;DHT22;45916;52.734;6.544;2022-08-19T04:43:23;13.30;99.90
60039;DHT22;45916;52.734;6.544;2022-08-19T04:45:48;13.30;99.90
60039;DHT22;45916;52.734;6.544;2022-08-19T04:48:19;13.40;99.90
60039;DHT22;45916;52.734;6.544;2022-08-19T04:50:52;13.40;99.90
60039;DHT22;45916;52.734;6.544;2022-08-19T04:53:26;13.40;99.90
60039;DHT22;45916;52.734;6.544;2022-08-19T04:55:56;13.50;99.90
60039;DHT22;45916;52.734;6.544;2022-08-19T04:58:22;13.60;99.90
60039;DHT22;45916;52.734;6.544;2022-08-19T05:00:48;13.70;99.90
60039;DHT22;45916;52.734;6.544;2022-08-19T05:03:13;13.80;99.90
60039;DHT22;45916;52.734;6.544;2022-08-19T05:05:41;13.80;99.90
60039;DHT22;45916;52.734;6.544;2022-08-19T05:08:07;13.90;99.90
60039;DHT22;45916;52.734;6.544;2022-08-19T05:10:37;13.90;99.90
60039;DHT22;45916;52.734;6.544;2022-08-19T05:13:03;13.90;99.90
60039;DHT22;45916;52.734;6.544;2022-08-19T05:15:29;13.90;99.90
60039;DHT22;45916;52.734;6.544;2022-08-19T05:17:54;14.00;99.90
60039;DHT22;45916;52.734;6.544;2022-08-19T05:20:39;14.30;99.90
60039;DHT22;45916;52.734;6.544;2022-08-19T05:23:23;14.90;99.90
60039;DHT22;45916;52.734;6.544;2022-08-19T05:25:49;15.90;99.90
60039;DHT22;45916;52.734;6.544;2022-08-19T05:28:15;16.80;99.90
60039;DHT22;45916;52.734;6.544;2022-08-19T05:30:41;17.50;99.90
60039;DHT22;45916;52.734;6.544;2022-08-19T05:33:08;18.10;99.90
60039;DHT22;45916;52.734;6.544;2022-08-19T05:35:37;19.20;99.90
60039;DHT22;45916;52.734;6.544;2022-08-19T05:38:03;20.40;99.90
60039;DHT22;45916;52.734;6.544;2022-08-19T05:40:29;21.60;99.90
60039;DHT22;45916;52.734;6.544;2022-08-19T05:42:54;22.90;99.90
60039;DHT22;45916;52.734;6.544;2022-08-19T05:45:20;24.20;99.90
60039;DHT22;45916;52.734;6.544;2022-08-19T05:47:47;25.50;99.90
60039;DHT22;45916;52.734;6.544;2022-08-19T05:50:12;26.40;99.90
60039;DHT22;45916;52.734;6.544;2022-08-19T05:52:38;27.30;99.90
60039;DHT22;45916;52.734;6.544;2022-08-19T05:55:04;28.20;99.00
60039;DHT22;45916;52.734;6.544;2022-08-19T05:57:30;29.00;95.60
60039;DHT22;45916;52.734;6.544;2022-08-19T05:59:56;30.00;92.70
60039;DHT22;45916;52.734;6.544;2022-08-19T06:02:22;30.80;91.00
60039;DHT22;45916;52.734;6.544;2022-08-19T06:04:48;31.50;84.70
60039;DHT22;45916;52.734;6.544;2022-08-19T06:07:14;32.20;82.80
60039;DHT22;45916;52.734;6.544;2022-08-19T06:09:40;33.20;70.90
60039;DHT22;45916;52.734;6.544;2022-08-19T06:12:06;34.10;63.60
60039;DHT22;45916;52.734;6.544;2022-08-19T06:14:32;34.90;60.40
60039;DHT22;45916;52.734;6.544;2022-08-19T06:17:00;35.70;56.80
60039;DHT22;45916;52.734;6.544;2022-08-19T06:19:27;36.30;53.50
60039;DHT22;45916;52.734;6.544;2022-08-19T06:21:55;36.90;52.50
60039;DHT22;45916;52.734;6.544;2022-08-19T06:24:22;37.60;50.80
60039;DHT22;45916;52.734;6.544;2022-08-19T06:26:51;38.00;50.00
60039;DHT22;45916;52.734;6.544;2022-08-19T06:29:18;38.50;48.70
60039;DHT22;45916;52.734;6.544;2022-08-19T06:31:47;39.00;48.90
60039;DHT22;45916;52.734;6.544;2022-08-19T06:34:17;39.50;47.60
60039;DHT22;45916;52.734;6.544;2022-08-19T06:36:44;40.10;46.10
60039;DHT22;45916;52.734;6.544;2022-08-19T06:39:14;40.60;44.60
60039;DHT22;45916;52.734;6.544;2022-08-19T06:41:44;41.10;44.10
60039;DHT22;45916;52.734;6.544;2022-08-19T06:44:10;41.40;42.10
60039;DHT22;45916;52.734;6.544;2022-08-19T06:46:39;41.80;41.90
60039;DHT22;45916;52.734;6.544;2022-08-19T06:49:05;42.20;40.70
60039;DHT22;45916;52.734;6.544;2022-08-19T06:51:31;42.60;40.40
60039;DHT22;45916;52.734;6.544;2022-08-19T06:53:59;42.70;39.60
60039;DHT22;45916;52.734;6.544;2022-08-19T06:56:26;42.90;39.70
60039;DHT22;45916;52.734;6.544;2022-08-19T06:59:09;43.40;39.20
60039;DHT22;45916;52.734;6.544;2022-08-19T07:01:36;43.80;38.10
60039;DHT22;45916;52.734;6.544;2022-08-19T07:04:03;44.00;38.10
60039;DHT22;45916;52.734;6.544;2022-08-19T07:06:32;44.20;37.80
60039;DHT22;45916;52.734;6.544;2022-08-19T07:08:57;44.40;37.70
60039;DHT22;45916;52.734;6.544;2022-08-19T07:11:23;44.80;37.20
60039;DHT22;45916;52.734;6.544;2022-08-19T07:13:49;44.90;36.40
60039;DHT22;45916;52.734;6.544;2022-08-19T07:16:17;45.00;36.20
60039;DHT22;45916;52.734;6.544;2022-08-19T07:18:48;44.90;36.70
60039;DHT22;45916;52.734;6.544;2022-08-19T07:21:18;44.80;36.90
60039;DHT22;45916;52.734;6.544;2022-08-19T07:23:45;45.20;35.70
60039;DHT22;45916;52.734;6.544;2022-08-19T07:26:12;45.60;35.40
60039;DHT22;45916;52.734;6.544;2022-08-19T07:28:41;45.90;35.00
60039;DHT22;45916;52.734;6.544;2022-08-19T07:31:12;46.20;35.40
60039;DHT22;45916;52.734;6.544;2022-08-19T07:33:38;46.60;34.50
60039;DHT22;45916;52.734;6.544;2022-08-19T07:36:05;47.20;34.20
60039;DHT22;45916;52.734;6.544;2022-08-19T07:38:31;47.90;33.30
60039;DHT22;45916;52.734;6.544;2022-08-19T07:40:57;48.10;32.90
60039;DHT22;45916;52.734;6.544;2022-08-19T07:43:22;48.10;32.40
60039;DHT22;45916;52.734;6.544;2022-08-19T07:45:51;48.00;33.10
60039;DHT22;45916;52.734;6.544;2022-08-19T07:48:23;48.00;32.90
60039;DHT22;45916;52.734;6.544;2022-08-19T07:50:54;48.00;32.50
60039;DHT22;45916;52.734;6.544;2022-08-19T07:53:26;48.00;32.70
60039;DHT22;45916;52.734;6.544;2022-08-19T07:55:51;48.10;33.40
60039;DHT22;45916;52.734;6.544;2022-08-19T07:58:18;48.50;31.80
60039;DHT22;45916;52.734;6.544;2022-08-19T08:00:46;48.70;32.00
60039;DHT22;45916;52.734;6.544;2022-08-19T08:03:12;49.30;31.50
60039;DHT22;45916;52.734;6.544;2022-08-19T08:05:38;49.60;30.20
60039;DHT22;45916;52.734;6.544;2022-08-19T08:08:23;49.40;31.50
60039;DHT22;45916;52.734;6.544;2022-08-19T08:11:07;49.50;29.90
60039;DHT22;45916;52.734;6.544;2022-08-19T08:13:32;49.30;30.70
60039;DHT22;45916;52.734;6.544;2022-08-19T08:16:01;49.50;30.50
60039;DHT22;45916;52.734;6.544;2022-08-19T08:18:27;50.00;29.80
60039;DHT22;45916;52.734;6.544;2022-08-19T08:20:53;50.40;29.50
60039;DHT22;45916;52.734;6.544;2022-08-19T08:23:18;50.60;30.00
60039;DHT22;45916;52.734;6.544;2022-08-19T08:25:51;50.80;29.40
60039;DHT22;45916;52.734;6.544;2022-08-19T08:28:17;50.60;29.40
60039;DHT22;45916;52.734;6.544;2022-08-19T08:30:44;50.40;29.60
60039;DHT22;45916;52.734;6.544;2022-08-19T08:33:13;50.30;30.10
60039;DHT22;45916;52.734;6.544;2022-08-19T08:35:39;50.50;29.30
60039;DHT22;45916;52.734;6.544;2022-08-19T08:38:07;50.50;29.40
60039;DHT22;45916;52.734;6.544;2022-08-19T08:40:37;50.80;29.20
60039;DHT22;45916;52.734;6.544;2022-08-19T08:43:05;50.80;28.90
60039;DHT22;45916;52.734;6.544;2022-08-19T08:45:35;50.80;29.30
60039;DHT22;45916;52.734;6.544;2022-08-19T08:48:02;50.60;29.70
60039;DHT22;45916;52.734;6.544;2022-08-19T08:50:31;49.50;29.00
60039;DHT22;45916;52.734;6.544;2022-08-19T08:53:01;48.60;29.70
60039;DHT22;45916;52.734;6.544;2022-08-19T08:55:27;48.40;31.30
60039;DHT22;45916;52.734;6.544;2022-08-19T08:58:04;48.80;30.70
60039;DHT22;45916;52.734;6.544;2022-08-19T09:00:41;49.50;30.30
60039;DHT22;45916;52.734;6.544;2022-08-19T09:03:18;50.20;29.30
60039;DHT22;45916;52.734;6.544;2022-08-19T09:05:55;50.50;29.10
60039;DHT22;45916;52.734;6.544;2022-08-19T09:11:24;50.90;28.50
60039;DHT22;45916;52.734;6.544;2022-08-19T09:14:02;50.70;28.80
60039;DHT22;45916;52.734;6.544;2022-08-19T09:16:30;50.50;29.00
60039;DHT22;45916;52.734;6.544;2022-08-19T09:19:00;50.60;29.00
60039;DHT22;45916;52.734;6.544;2022-08-19T09:21:26;50.90;28.70
60039;DHT22;45916;52.734;6.544;2022-08-19T09:23:55;51.10;28.40
60039;DHT22;45916;52.734;6.544;2022-08-19T09:26:21;51.30;27.90
60039;DHT22;45916;52.734;6.544;2022-08-19T09:28:48;51.10;27.70
60039;DHT22;45916;52.734;6.544;2022-08-19T09:31:14;50.40;27.90
60039;DHT22;45916;52.734;6.544;2022-08-19T09:33:40;50.10;28.30
60039;DHT22;45916;52.734;6.544;2022-08-19T09:36:10;49.80;28.70
60039;DHT22;45916;52.734;6.544;2022-08-19T09:38:36;50.00;29.10
60039;DHT22;45916;52.734;6.544;2022-08-19T09:41:09;50.40;28.90
60039;DHT22;45916;52.734;6.544;2022-08-19T09:43:36;50.50;28.70
60039;DHT22;45916;52.734;6.544;2022-08-19T09:46:03;50.40;29.20
60039;DHT22;45916;52.734;6.544;2022-08-19T09:48:30;50.40;28.30
60039;DHT22;45916;52.734;6.544;2022-08-19T09:50:55;50.00;28.60
60039;DHT22;45916;52.734;6.544;2022-08-19T09:53:27;49.50;28.80
60039;DHT22;45916;52.734;6.544;2022-08-19T09:55:56;49.00;29.10
60039;DHT22;45916;52.734;6.544;2022-08-19T09:58:22;48.90;29.60
60039;DHT22;45916;52.734;6.544;2022-08-19T10:00:53;48.60;29.10
60039;DHT22;45916;52.734;6.544;2022-08-19T10:03:19;48.40;29.90
60039;DHT22;45916;52.734;6.544;2022-08-19T10:05:45;48.10;30.00
60039;DHT22;45916;52.734;6.544;2022-08-19T10:08:14;48.10;29.70
60039;DHT22;45916;52.734;6.544;2022-08-19T10:10:43;48.20;29.70
60039;DHT22;45916;52.734;6.544;2022-08-19T10:13:09;48.10;29.60
60039;DHT22;45916;52.734;6.544;2022-08-19T10:15:35;48.20;29.80
60039;DHT22;45916;52.734;6.544;2022-08-19T10:18:00;48.50;29.80
60039;DHT22;45916;52.734;6.544;2022-08-19T10:20:26;48.70;29.70
60039;DHT22;45916;52.734;6.544;2022-08-19T10:22:52;48.70;29.40
60039;DHT22;45916;52.734;6.544;2022-08-19T10:25:17;48.50;29.10
60039;DHT22;45916;52.734;6.544;2022-08-19T10:27:43;47.80;29.30
60039;DHT22;45916;52.734;6.544;2022-08-19T10:30:09;47.90;30.00
60039;DHT22;45916;52.734;6.544;2022-08-19T10:32:35;48.40;29.50
60039;DHT22;45916;52.734;6.544;2022-08-19T10:35:01;48.20;29.70
60039;DHT22;45916;52.734;6.544;2022-08-19T10:37:29;47.90;29.20
60039;DHT22;45916;52.734;6.544;2022-08-19T10:39:56;47.50;30.50
60039;DHT22;45916;52.734;6.544;2022-08-19T10:42:25;47.50;30.10
60039;DHT22;45916;52.734;6.544;2022-08-19T10:44:51;47.30;30.20
60039;DHT22;45916;52.734;6.544;2022-08-19T10:47:16;47.20;30.20
60039;DHT22;45916;52.734;6.544;2022-08-19T10:49:42;47.00;30.80
60039;DHT22;45916;52.734;6.544;2022-08-19T10:52:30;47.20;31.20
60039;DHT22;45916;52.734;6.544;2022-08-19T10:55:00;46.90;31.00
60039;DHT22;45916;52.734;6.544;2022-08-19T10:57:44;46.50;31.00
60039;DHT22;45916;52.734;6.544;2022-08-19T11:00:10;45.80;31.10
60039;DHT22;45916;52.734;6.544;2022-08-19T11:02:35;45.60;31.50
60039;DHT22;45916;52.734;6.544;2022-08-19T11:05:01;43.90;31.60
60039;DHT22;45916;52.734;6.544;2022-08-19T11:07:29;42.40;33.60
60039;DHT22;45916;52.734;6.544;2022-08-19T11:09:57;41.80;35.30
60039;DHT22;45916;52.734;6.544;2022-08-19T11:12:23;40.70;35.30
60039;DHT22;45916;52.734;6.544;2022-08-19T11:14:49;39.60;36.80
60039;DHT22;45916;52.734;6.544;2022-08-19T11:17:15;38.20;38.10
60039;DHT22;45916;52.734;6.544;2022-08-19T11:19:41;37.00;39.30
60039;DHT22;45916;52.734;6.544;2022-08-19T11:22:08;36.20;40.90
60039;DHT22;45916;52.734;6.544;2022-08-19T11:24:35;35.70;42.60
60039;DHT22;45916;52.734;6.544;2022-08-19T11:27:02;35.40;43.50
60039;DHT22;45916;52.734;6.544;2022-08-19T11:29:30;34.80;44.20
60039;DHT22;45916;52.734;6.544;2022-08-19T11:31:56;34.50;45.30
60039;DHT22;45916;52.734;6.544;2022-08-19T11:34:22;34.40;45.50
60039;DHT22;45916;52.734;6.544;2022-08-19T11:36:49;34.20;46.20
60039;DHT22;45916;52.734;6.544;2022-08-19T11:39:16;34.00;46.90
60039;DHT22;45916;52.734;6.544;2022-08-19T11:41:42;33.90;47.10
60039;DHT22;45916;52.734;6.544;2022-08-19T11:44:08;33.70;47.30
60039;DHT22;45916;52.734;6.544;2022-08-19T11:46:36;33.60;46.50
60039;DHT22;45916;52.734;6.544;2022-08-19T11:49:03;33.40;46.30
60039;DHT22;45916;52.734;6.544;2022-08-19T11:51:32;33.20;46.50
60039;DHT22;45916;52.734;6.544;2022-08-19T11:53:59;32.90;46.70
60039;DHT22;45916;52.734;6.544;2022-08-19T11:56:25;32.60;46.70
60039;DHT22;45916;52.734;6.544;2022-08-19T11:58:54;32.40;47.30
60039;DHT22;45916;52.734;6.544;2022-08-19T12:01:26;32.30;46.60
60039;DHT22;45916;52.734;6.544;2022-08-19T12:06:54;32.00;46.90
60039;DHT22;45916;52.734;6.544;2022-08-19T12:09:23;31.90;47.40
60039;DHT22;45916;52.734;6.544;2022-08-19T12:11:48;32.00;48.50
60039;DHT22;45916;52.734;6.544;2022-08-19T12:14:14;32.20;48.40
60039;DHT22;45916;52.734;6.544;2022-08-19T12:16:39;32.00;48.10
60039;DHT22;45916;52.734;6.544;2022-08-19T12:19:06;31.90;49.00
60039;DHT22;45916;52.734;6.544;2022-08-19T12:21:33;31.70;48.80
60039;DHT22;45916;52.734;6.544;2022-08-19T12:23:59;31.70;49.00
60039;DHT22;45916;52.734;6.544;2022-08-19T12:26:26;31.90;49.70
60039;DHT22;45916;52.734;6.544;2022-08-19T12:28:52;32.10;48.60
60039;DHT22;45916;52.734;6.544;2022-08-19T12:31:18;32.30;48.30
60039;DHT22;45916;52.734;6.544;2022-08-19T12:33:45;32.30;46.80
60039;DHT22;45916;52.734;6.544;2022-08-19T12:36:11;32.10;46.40
60039;DHT22;45916;52.734;6.544;2022-08-19T12:38:38;31.80;46.10
60039;DHT22;45916;52.734;6.544;2022-08-19T12:41:04;31.30;46.20
60039;DHT22;45916;52.734;6.544;2022-08-19T12:43:32;31.10;46.70
60039;DHT22;45916;52.734;6.544;2022-08-19T12:45:58;31.00;47.90
60039;DHT22;45916;52.734;6.544;2022-08-19T12:48:24;31.00;48.80
60039;DHT22;45916;52.734;6.544;2022-08-19T12:50:49;30.90;49.00
60039;DHT22;45916;52.734;6.544;2022-08-19T12:53:15;31.10;49.70
60039;DHT22;45916;52.734;6.544;2022-08-19T12:55:41;31.10;50.20
60039;DHT22;45916;52.734;6.544;2022-08-19T12:58:07;31.20;49.80
60039;DHT22;45916;52.734;6.544;2022-08-19T13:00:33;31.20;49.70
60039;DHT22;45916;52.734;6.544;2022-08-19T13:02:59;31.30;49.60
60039;DHT22;45916;52.734;6.544;2022-08-19T13:05:29;31.10;49.60
60039;DHT22;45916;52.734;6.544;2022-08-19T13:07:56;31.00;49.80
60039;DHT22;45916;52.734;6.544;2022-08-19T13:10:23;30.90;50.50
60039;DHT22;45916;52.734;6.544;2022-08-19T13:12:50;30.80;50.30
60039;DHT22;45916;52.734;6.544;2022-08-19T13:15:16;30.70;50.80
60039;DHT22;45916;52.734;6.544;2022-08-19T13:17:46;30.70;51.00
60039;DHT22;45916;52.734;6.544;2022-08-19T13:20:15;30.50;50.60
60039;DHT22;45916;52.734;6.544;2022-08-19T13:22:40;30.60;51.20
60039;DHT22;45916;52.734;6.544;2022-08-19T13:25:08;30.70;51.20
60039;DHT22;45916;52.734;6.544;2022-08-19T13:27:33;30.70;50.90
60039;DHT22;45916;52.734;6.544;2022-08-19T13:29:59;30.60;51.10
60039;DHT22;45916;52.734;6.544;2022-08-19T13:32:44;30.40;51.70
60039;DHT22;45916;52.734;6.544;2022-08-19T13:35:28;30.50;51.80
60039;DHT22;45916;52.734;6.544;2022-08-19T13:37:53;30.80;52.10
60039;DHT22;45916;52.734;6.544;2022-08-19T13:40:20;30.90;52.30
60039;DHT22;45916;52.734;6.544;2022-08-19T13:42:50;30.90;51.50
60039;DHT22;45916;52.734;6.544;2022-08-19T13:45:17;30.70;50.10
60039;DHT22;45916;52.734;6.544;2022-08-19T13:47:45;30.50;50.60
60039;DHT22;45916;52.734;6.544;2022-08-19T13:50:11;30.20;51.30
60039;DHT22;45916;52.734;6.544;2022-08-19T13:52:38;30.00;51.90
60039;DHT22;45916;52.734;6.544;2022-08-19T13:55:04;29.80;51.80
60039;DHT22;45916;52.734;6.544;2022-08-19T13:57:29;29.70;51.90
60039;DHT22;45916;52.734;6.544;2022-08-19T13:59:56;29.70;52.60
60039;DHT22;45916;52.734;6.544;2022-08-19T14:02:22;29.60;52.90
60039;DHT22;45916;52.734;6.544;2022-08-19T14:04:47;29.50;53.20
60039;DHT22;45916;52.734;6.544;2022-08-19T14:07:13;29.50;53.50
60039;DHT22;45916;52.734;6.544;2022-08-19T14:09:39;29.40;54.20
60039;DHT22;45916;52.734;6.544;2022-08-19T14:12:05;29.30;54.60
60039;DHT22;45916;52.734;6.544;2022-08-19T14:14:30;29.20;54.30
60039;DHT22;45916;52.734;6.544;2022-08-19T14:16:56;29.20;54.40
60039;DHT22;45916;52.734;6.544;2022-08-19T14:19:22;29.20;54.10
60039;DHT22;45916;52.734;6.544;2022-08-19T14:21:47;29.30;54.40
60039;DHT22;45916;52.734;6.544;2022-08-19T14:24:13;29.20;54.40
60039;DHT22;45916;52.734;6.544;2022-08-19T14:26:39;29.00;54.50
60039;DHT22;45916;52.734;6.544;2022-08-19T14:29:04;28.80;55.40
60039;DHT22;45916;52.734;6.544;2022-08-19T14:31:30;28.50;56.50
60039;DHT22;45916;52.734;6.544;2022-08-19T14:33:55;28.40;57.30
60039;DHT22;45916;52.734;6.544;2022-08-19T14:36:21;28.30;58.30
60039;DHT22;45916;52.734;6.544;2022-08-19T14:38:47;28.20;59.80
60039;DHT22;45916;52.734;6.544;2022-08-19T14:41:18;28.10;60.90
60039;DHT22;45916;52.734;6.544;2022-08-19T14:43:46;28.10;63.30
60039;DHT22;45916;52.734;6.544;2022-08-19T14:46:16;28.00;65.50
60039;DHT22;45916;52.734;6.544;2022-08-19T14:48:42;28.10;68.60
60039;DHT22;45916;52.734;6.544;2022-08-19T14:51:08;28.20;71.40
60039;DHT22;45916;52.734;6.544;2022-08-19T14:53:34;28.40;73.80
60039;DHT22;45916;52.734;6.544;2022-08-19T14:56:00;28.40;75.30
60039;DHT22;45916;52.734;6.544;2022-08-19T14:58:26;28.40;77.70
60039;DHT22;45916;52.734;6.544;2022-08-19T15:00:52;28.20;79.30
60039;DHT22;45916;52.734;6.544;2022-08-19T15:03:18;28.00;83.00
60039;DHT22;45916;52.734;6.544;2022-08-19T15:05:43;27.80;83.90
60039;DHT22;45916;52.734;6.544;2022-08-19T15:08:09;27.70;86.20
60039;DHT22;45916;52.734;6.544;2022-08-19T15:10:35;27.50;88.40
60039;DHT22;45916;52.734;6.544;2022-08-19T15:13:01;27.50;89.90
60039;DHT22;45916;52.734;6.544;2022-08-19T15:15:26;27.40;90.30
60039;DHT22;45916;52.734;6.544;2022-08-19T15:17:52;27.30;90.70
60039;DHT22;45916;52.734;6.544;2022-08-19T15:20:19;27.20;90.10
60039;DHT22;45916;52.734;6.544;2022-08-19T15:22:45;27.20;90.50
60039;DHT22;45916;52.734;6.544;2022-08-19T15:25:11;27.20;90.20
60039;DHT22;45916;52.734;6.544;2022-08-19T15:27:37;27.10;90.00
60039;DHT22;45916;52.734;6.544;2022-08-19T15:30:04;27.10;89.60
60039;DHT22;45916;52.734;6.544;2022-08-19T15:32:30;27.00;88.50
60039;DHT22;45916;52.734;6.544;2022-08-19T15:34:55;27.00;87.70
60039;DHT22;45916;52.734;6.544;2022-08-19T15:37:21;26.90;88.30